Time;durP1;ratioP1;P1;durP2;ratioP2;P2;SDS_P1;SDS_P2;PMS_P1;PMS_P2;Temp;Humidity;BMP_temperature;BMP_pressure;BME280_temperature;BME280_humidity;BME280_pressure;Samples;Min_cycle;Max_cycle;Signal;HPM_P1;HPM_P2
2022/03/11 00:01:46;;;;;;;5.05;2.25;;;5.70;99.90;;;;;;5043821;28;20033;-74
2022/03/11 00:04:12;;;;;;;3.70;1.52;;;5.70;99.90;;;;;;5025370;28;20021;-75
2022/03/11 00:06:38;;;;;;;4.60;1.48;;;5.70;99.90;;;;;;5010360;28;20025;-74
2022/03/11 00:09:04;;;;;;;4.53;1.42;;;5.70;99.90;;;;;;5028216;28;21132;-74
2022/03/11 00:11:30;;;;;;;6.43;2.55;;;5.70;99.90;;;;;;5031564;28;20091;-75
2022/03/11 00:13:56;;;;;;;5.25;2.65;;;5.70;99.90;;;;;;5025635;28;20041;-74
2022/03/11 00:16:22;;;;;;;5.30;1.92;;;5.60;99.90;;;;;;5026910;28;20036;-75
2022/03/11 00:18:48;;;;;;;5.43;2.58;;;5.70;99.90;;;;;;5027884;28;20029;-74
2022/03/11 00:21:14;;;;;;;6.00;2.75;;;5.70;99.90;;;;;;5024410;28;20159;-74
2022/03/11 00:23:42;;;;;;;4.35;2.13;;;5.50;99.90;;;;;;5032590;28;20104;-74
2022/03/11 00:26:08;;;;;;;6.38;3.00;;;5.40;99.90;;;;;;5028568;28;20040;-74
2022/03/11 00:28:33;;;;;;;5.80;2.28;;;5.40;99.90;;;;;;5030278;28;20355;-75
2022/03/11 00:31:01;;;;;;;5.60;2.78;;;5.30;99.90;;;;;;5033288;28;20038;-74
2022/03/11 00:33:27;;;;;;;6.22;3.17;;;5.40;99.90;;;;;;5026899;28;20025;-74
2022/03/11 00:35:52;;;;;;;5.80;2.83;;;5.30;99.90;;;;;;5014636;28;20179;-74
2022/03/11 00:38:18;;;;;;;4.57;2.10;;;5.30;99.90;;;;;;5036999;28;20464;-75
2022/03/11 00:40:44;;;;;;;4.72;2.60;;;5.30;99.90;;;;;;5031663;28;20425;-74
2022/03/11 00:43:09;;;;;;;4.88;2.47;;;5.30;99.90;;;;;;5035426;28;20032;-75
2022/03/11 00:45:35;;;;;;;6.97;2.97;;;5.30;99.90;;;;;;5026750;28;20188;-74
2022/03/11 00:48:00;;;;;;;6.68;3.25;;;5.30;99.90;;;;;;5029968;28;20399;-74
2022/03/11 00:50:26;;;;;;;6.32;3.33;;;5.30;99.90;;;;;;5014722;28;20128;-74
2022/03/11 00:52:52;;;;;;;6.22;3.05;;;5.30;99.90;;;;;;5032130;28;20017;-75
2022/03/11 00:55:18;;;;;;;5.63;3.10;;;5.20;99.90;;;;;;5030489;28;20037;-74
2022/03/11 00:57:44;;;;;;;6.60;2.83;;;5.30;99.90;;;;;;5035657;28;20470;-74
2022/03/11 01:00:10;;;;;;;5.43;2.78;;;5.10;99.90;;;;;;5026035;28;20037;-75
2022/03/11 01:02:38;;;;;;;5.80;3.25;;;5.10;99.90;;;;;;5021264;28;20030;-74
2022/03/11 01:05:05;;;;;;;6.07;3.00;;;5.10;99.90;;;;;;5031253;28;20061;-75
2022/03/11 01:07:49;;;;;;;8.15;3.58;;;5.10;99.90;;;;;;5036461;28;20457;-74
2022/03/11 01:10:34;;;;;;;8.73;4.25;;;5.10;99.90;;;;;;5028765;28;20052;-74
2022/03/11 01:13:00;;;;;;;7.20;3.80;;;5.10;99.90;;;;;;5028211;28;20032;-74
2022/03/11 01:15:44;;;;;;;5.45;3.20;;;5.20;99.90;;;;;;5016780;28;20064;-74
2022/03/11 01:18:28;;;;;;;7.82;4.20;;;5.10;99.90;;;;;;5034279;28;20040;-74
2022/03/11 01:20:55;;;;;;;6.47;3.08;;;5.00;99.90;;;;;;5030798;28;20030;-75
2022/03/11 01:23:21;;;;;;;4.90;2.85;;;5.00;99.90;;;;;;5034146;28;20072;-75
2022/03/11 01:25:47;;;;;;;7.47;2.90;;;5.00;99.90;;;;;;5032323;28;20085;-74
2022/03/11 01:28:13;;;;;;;4.85;3.22;;;5.00;99.90;;;;;;5029782;28;20098;-74
2022/03/11 01:30:40;;;;;;;8.40;3.08;;;5.00;99.90;;;;;;5029482;28;20110;-74
2022/03/11 01:33:05;;;;;;;4.38;2.60;;;5.00;99.90;;;;;;5030138;28;20116;-75
2022/03/11 01:35:31;;;;;;;7.65;3.53;;;5.00;99.90;;;;;;5028628;28;20160;-75
2022/03/11 01:37:56;;;;;;;5.70;3.50;;;4.90;99.90;;;;;;5033154;28;20025;-75
2022/03/11 01:40:22;;;;;;;6.68;2.92;;;4.90;99.90;;;;;;5030534;28;20505;-74
2022/03/11 01:42:48;;;;;;;5.50;3.30;;;4.80;99.90;;;;;;5018110;28;20485;-74
2022/03/11 01:45:13;;;;;;;7.15;3.47;;;4.90;99.90;;;;;;5013119;28;20382;-74
2022/03/11 01:47:39;;;;;;;6.97;3.78;;;4.80;99.90;;;;;;5030667;28;20037;-74
2022/03/11 01:50:06;;;;;;;7.47;3.88;;;4.70;99.90;;;;;;5032834;28;20428;-74
2022/03/11 01:52:32;;;;;;;7.80;3.53;;;4.60;99.90;;;;;;5035256;28;20045;-74
2022/03/11 01:54:57;;;;;;;7.25;3.13;;;4.70;99.90;;;;;;5030027;28;20029;-74
2022/03/11 01:57:24;;;;;;;11.02;3.33;;;4.70;99.90;;;;;;5028508;28;20025;-74
2022/03/11 01:59:53;;;;;;;6.13;3.35;;;4.70;99.90;;;;;;5030195;28;20377;-75
2022/03/11 02:02:20;;;;;;;5.85;3.35;;;4.70;99.90;;;;;;5031676;28;20126;-74
2022/03/11 02:04:46;;;;;;;6.45;3.70;;;4.60;99.90;;;;;;5020588;28;20033;-74
2022/03/11 02:07:12;;;;;;;8.07;4.28;;;4.70;99.90;;;;;;5029471;28;20026;-74
2022/03/11 02:09:38;;;;;;;7.00;3.58;;;4.70;99.90;;;;;;5013216;28;20504;-74
2022/03/11 02:12:04;;;;;;;7.82;4.38;;;4.70;99.90;;;;;;5038467;28;20109;-74
2022/03/11 02:14:29;;;;;;;5.68;3.20;;;4.60;99.90;;;;;;5031958;28;20092;-74
2022/03/11 02:16:55;;;;;;;7.03;3.85;;;4.50;99.90;;;;;;5013337;28;20072;-74
2022/03/11 02:19:20;;;;;;;8.90;4.13;;;4.50;99.90;;;;;;5029348;28;20041;-74
2022/03/11 02:21:48;;;;;;;7.22;3.20;;;4.40;99.90;;;;;;5032889;28;20026;-74
2022/03/11 02:24:16;;;;;;;7.90;3.85;;;4.40;99.90;;;;;;5029234;28;20033;-74
2022/03/11 02:26:42;;;;;;;8.90;3.50;;;4.40;99.90;;;;;;5029043;28;20037;-74
2022/03/11 02:29:08;;;;;;;6.00;3.75;;;4.40;99.90;;;;;;5029774;28;20071;-74
2022/03/11 02:31:34;;;;;;;6.82;3.97;;;4.50;99.90;;;;;;5032571;28;20041;-74
2022/03/11 02:34:02;;;;;;;6.00;3.75;;;4.40;99.90;;;;;;5029340;28;20032;-75
2022/03/11 02:36:27;;;;;;;6.18;3.30;;;4.40;99.90;;;;;;5026100;28;20038;-74
2022/03/11 02:38:53;;;;;;;4.72;3.13;;;4.40;99.90;;;;;;5028987;28;20079;-74
2022/03/11 02:41:22;;;;;;;10.65;5.07;;;4.50;99.90;;;;;;5029356;28;20021;-74
2022/03/11 02:43:48;;;;;;;9.98;5.15;;;4.50;99.90;;;;;;5031900;28;20029;-74
2022/03/11 02:46:14;;;;;;;10.27;5.60;;;4.50;99.90;;;;;;5028770;28;20045;-74
2022/03/11 02:48:40;;;;;;;7.57;3.83;;;4.50;99.90;;;;;;5027408;28;20065;-74
2022/03/11 02:51:06;;;;;;;11.02;4.93;;;4.50;99.90;;;;;;5000546;28;20045;-74
2022/03/11 02:53:32;;;;;;;8.90;4.88;;;4.50;99.90;;;;;;5030257;28;20025;-75
2022/03/11 02:55:58;;;;;;;10.77;5.55;;;4.50;99.90;;;;;;5028505;28;20017;-75
2022/03/11 02:58:24;;;;;;;10.02;5.68;;;4.50;99.90;;;;;;5032156;28;20029;-74
2022/03/11 03:00:49;;;;;;;8.25;4.72;;;4.50;99.90;;;;;;5030231;28;20403;-74
2022/03/11 03:03:15;;;;;;;9.15;5.38;;;4.50;99.90;;;;;;5029453;28;20549;-75
2022/03/11 03:05:41;;;;;;;8.95;4.60;;;4.60;99.90;;;;;;5028860;28;20474;-74
2022/03/11 03:08:06;;;;;;;10.13;5.07;;;4.50;99.90;;;;;;5031866;28;20401;-74
2022/03/11 03:10:32;;;;;;;8.93;4.38;;;4.50;99.90;;;;;;5030225;28;20177;-73
2022/03/11 03:12:58;;;;;;;7.03;4.05;;;4.40;99.90;;;;;;5032397;28;20022;-74
2022/03/11 03:15:25;;;;;;;7.65;4.60;;;4.50;99.90;;;;;;5029695;28;20033;-74
2022/03/11 03:17:51;;;;;;;9.45;5.00;;;4.50;99.90;;;;;;5034544;28;20036;-74
2022/03/11 03:20:17;;;;;;;8.75;4.65;;;4.50;99.90;;;;;;5022958;28;20040;-74
2022/03/11 03:22:43;;;;;;;6.68;3.55;;;4.50;99.90;;;;;;5001014;28;20079;-74
2022/03/11 03:25:11;;;;;;;7.38;4.78;;;4.40;99.90;;;;;;5031954;28;20026;-74
2022/03/11 03:27:37;;;;;;;9.35;4.45;;;4.30;99.90;;;;;;5028274;28;20029;-74
2022/03/11 03:30:04;;;;;;;8.82;4.45;;;4.40;99.90;;;;;;5023972;28;20037;-74
2022/03/11 03:32:30;;;;;;;6.85;3.42;;;4.30;99.90;;;;;;5028185;28;20018;-74
2022/03/11 03:34:56;;;;;;;7.93;3.92;;;4.30;99.90;;;;;;5025849;28;20037;-74
2022/03/11 03:37:21;;;;;;;5.95;3.30;;;4.20;99.90;;;;;;5022506;28;20035;-74
2022/03/11 03:39:47;;;;;;;7.55;3.75;;;4.20;99.90;;;;;;5032111;28;20029;-74
2022/03/11 03:42:12;;;;;;;7.18;3.53;;;4.20;99.90;;;;;;5031711;28;20075;-74
2022/03/11 03:44:38;;;;;;;5.93;3.30;;;4.20;99.90;;;;;;5027455;28;20041;-74
2022/03/11 03:47:07;;;;;;;6.93;3.95;;;4.10;99.90;;;;;;5027972;28;20037;-74
2022/03/11 03:49:34;;;;;;;6.50;3.75;;;4.10;99.90;;;;;;5038562;28;20033;-74
2022/03/11 03:52:00;;;;;;;6.32;3.58;;;4.10;99.90;;;;;;5028327;28;20071;-74
2022/03/11 03:54:26;;;;;;;6.65;3.80;;;4.00;99.90;;;;;;5011577;28;20030;-74
2022/03/11 03:56:51;;;;;;;6.28;3.33;;;4.00;99.90;;;;;;5026223;28;20029;-74
2022/03/11 03:59:17;;;;;;;5.25;2.40;;;4.10;99.90;;;;;;5027839;28;20025;-74
2022/03/11 04:01:43;;;;;;;7.85;3.88;;;4.10;99.90;;;;;;5029376;28;20540;-74
2022/03/11 04:04:11;;;;;;;6.43;3.45;;;4.00;99.90;;;;;;5027005;28;20470;-74
2022/03/11 04:06:38;;;;;;;7.20;3.92;;;4.10;99.90;;;;;;5014419;28;20030;-74
2022/03/11 04:09:07;;;;;;;5.35;3.13;;;4.10;99.90;;;;;;5034066;28;20087;-74
2022/03/11 04:11:33;;;;;;;8.35;3.90;;;4.10;99.90;;;;;;5027933;28;20091;-74
2022/03/11 04:13:59;;;;;;;7.28;3.60;;;4.10;99.90;;;;;;5032067;28;20025;-74
2022/03/11 04:16:27;;;;;;;7.35;3.30;;;4.00;99.90;;;;;;5035271;28;20026;-74
2022/03/11 04:18:53;;;;;;;6.93;3.67;;;4.00;99.90;;;;;;5032534;28;20037;-74
2022/03/11 04:21:19;;;;;;;7.63;3.55;;;4.00;99.90;;;;;;5033238;28;20401;-74
2022/03/11 04:23:45;;;;;;;6.15;3.28;;;4.00;99.90;;;;;;5033705;28;20032;-74
2022/03/11 04:26:11;;;;;;;6.55;3.83;;;4.10;99.90;;;;;;5015009;28;20495;-74
2022/03/11 04:28:38;;;;;;;6.22;3.35;;;4.10;99.90;;;;;;5033310;28;20104;-74
2022/03/11 04:31:04;;;;;;;9.88;5.07;;;4.10;99.90;;;;;;5015102;28;20045;-74
2022/03/11 04:33:30;;;;;;;9.40;4.30;;;4.10;99.90;;;;;;5032797;28;20071;-74
2022/03/11 04:35:56;;;;;;;7.90;3.92;;;4.10;99.90;;;;;;5013663;28;20033;-74
2022/03/11 04:38:21;;;;;;;9.05;4.38;;;4.00;99.90;;;;;;5031444;28;20029;-74
2022/03/11 04:40:47;;;;;;;6.63;3.63;;;4.20;99.90;;;;;;5029001;28;20029;-74
2022/03/11 04:43:13;;;;;;;7.25;3.45;;;4.10;99.90;;;;;;5030736;28;20026;-74
2022/03/11 04:45:39;;;;;;;9.00;4.22;;;4.00;99.90;;;;;;5031082;28;20098;-74
2022/03/11 04:48:05;;;;;;;6.95;3.65;;;4.00;99.90;;;;;;5034511;28;20048;-74
2022/03/11 04:50:30;;;;;;;7.95;3.97;;;4.00;99.90;;;;;;5026524;28;20405;-74
2022/03/11 04:52:56;;;;;;;5.90;3.30;;;4.00;99.90;;;;;;5027020;28;20400;-74
2022/03/11 04:55:23;;;;;;;6.72;3.22;;;4.00;99.90;;;;;;5034066;28;20024;-74
2022/03/11 04:57:48;;;;;;;5.75;3.00;;;4.00;99.90;;;;;;5029118;28;20021;-74
2022/03/11 05:00:15;;;;;;;7.30;3.95;;;4.00;99.90;;;;;;5030724;28;20036;-74
2022/03/11 05:02:44;;;;;;;5.60;2.97;;;4.00;99.90;;;;;;5035035;28;20569;-74
2022/03/11 05:05:12;;;;;;;6.80;3.13;;;4.00;99.90;;;;;;5012919;28;20061;-74
2022/03/11 05:07:38;;;;;;;6.57;3.63;;;4.00;99.90;;;;;;5034405;28;20180;-74
2022/03/11 05:10:08;;;;;;;8.15;3.47;;;4.00;99.90;;;;;;5035149;28;20029;-74
2022/03/11 05:12:37;;;;;;;6.43;3.25;;;4.00;99.90;;;;;;5024917;28;20030;-74
2022/03/11 05:15:05;;;;;;;7.55;3.80;;;4.00;99.90;;;;;;5032569;28;20033;-74
2022/03/11 05:17:31;;;;;;;6.63;3.65;;;4.00;99.90;;;;;;5030258;28;20035;-74
2022/03/11 05:19:57;;;;;;;7.15;3.83;;;4.10;99.90;;;;;;5013880;28;20484;-74
2022/03/11 05:22:22;;;;;;;5.78;3.05;;;4.00;99.90;;;;;;5034813;28;20025;-74
2022/03/11 05:24:49;;;;;;;6.18;3.42;;;4.00;99.90;;;;;;5031928;28;20469;-74
2022/03/11 05:27:15;;;;;;;6.65;3.10;;;4.00;99.90;;;;;;5029936;28;20037;-74
2022/03/11 05:29:41;;;;;;;5.35;2.50;;;4.00;99.90;;;;;;5013507;28;20037;-74
2022/03/11 05:32:08;;;;;;;7.43;3.40;;;3.90;99.90;;;;;;5030618;28;20452;-74
2022/03/11 05:34:34;;;;;;;7.00;3.42;;;3.90;99.90;;;;;;5021693;28;20264;-74
2022/03/11 05:37:00;;;;;;;6.63;3.42;;;3.90;99.90;;;;;;5023925;28;20085;-74
2022/03/11 05:39:26;;;;;;;6.30;3.10;;;3.90;99.90;;;;;;5026810;28;20121;-74
2022/03/11 05:41:52;;;;;;;5.82;2.58;;;3.90;99.90;;;;;;5030089;28;20033;-74
2022/03/11 05:44:18;;;;;;;6.50;3.53;;;3.80;99.90;;;;;;5032366;28;20052;-74
2022/03/11 05:46:45;;;;;;;5.88;2.65;;;3.80;99.90;;;;;;5028250;28;20050;-74
2022/03/11 05:49:11;;;;;;;5.88;2.85;;;3.80;99.90;;;;;;5030239;28;20539;-74
2022/03/11 05:51:37;;;;;;;7.47;3.40;;;3.80;99.90;;;;;;5029877;28;20037;-74
2022/03/11 05:54:03;;;;;;;5.57;2.90;;;3.80;99.90;;;;;;5030192;28;20025;-74
2022/03/11 05:56:29;;;;;;;6.15;2.97;;;3.90;99.90;;;;;;5034239;28;20048;-74
2022/03/11 05:58:55;;;;;;;6.25;2.70;;;3.70;99.90;;;;;;5030217;28;20493;-74
2022/03/11 06:01:22;;;;;;;6.13;2.78;;;3.70;99.90;;;;;;5030910;28;20478;-74
2022/03/11 06:03:47;;;;;;;6.05;2.95;;;3.60;99.90;;;;;;5030012;28;20112;-74
2022/03/11 06:06:14;;;;;;;5.97;2.92;;;3.60;99.90;;;;;;5032551;28;20087;-74
2022/03/11 06:08:40;;;;;;;6.10;2.63;;;3.60;99.90;;;;;;5033471;28;20363;-74
2022/03/11 06:11:06;;;;;;;4.97;2.53;;;3.60;99.90;;;;;;5030391;28;20087;-74
2022/03/11 06:13:32;;;;;;;8.05;3.17;;;3.60;99.90;;;;;;5026320;28;20428;-74
2022/03/11 06:15:57;;;;;;;4.80;2.33;;;3.70;99.90;;;;;;5025952;28;20068;-73
2022/03/11 06:18:24;;;;;;;7.38;4.22;;;3.70;99.90;;;;;;5027243;28;20031;-74
2022/03/11 06:20:50;;;;;;;6.82;3.70;;;3.70;99.90;;;;;;5006430;28;20481;-74
2022/03/11 06:23:15;;;;;;;5.78;2.95;;;3.70;99.90;;;;;;5029564;28;20028;-74
2022/03/11 06:25:42;;;;;;;6.22;3.40;;;3.70;99.90;;;;;;5028637;28;20437;-74
2022/03/11 06:28:08;;;;;;;6.65;2.97;;;3.70;99.90;;;;;;5025654;28;20038;-74
2022/03/11 06:30:34;;;;;;;7.00;3.47;;;3.70;99.90;;;;;;5025242;28;20063;-74
2022/03/11 06:33:00;;;;;;;5.60;2.47;;;3.70;99.90;;;;;;5029644;28;20022;-74
2022/03/11 06:35:25;;;;;;;4.50;1.95;;;3.70;99.90;;;;;;5024627;28;20037;-74
2022/03/11 06:37:51;;;;;;;5.15;2.53;;;3.70;99.90;;;;;;5027780;28;20025;-75
2022/03/11 06:40:18;;;;;;;5.55;2.47;;;3.80;99.90;;;;;;5026882;28;20080;-73
2022/03/11 06:42:46;;;;;;;6.40;2.35;;;3.80;99.90;;;;;;5029740;28;20131;-74
2022/03/11 06:45:15;;;;;;;5.82;2.58;;;3.90;99.90;;;;;;5030803;28;20147;-74
2022/03/11 06:47:41;;;;;;;6.60;3.47;;;3.90;99.90;;;;;;5024952;28;20049;-74
2022/03/11 06:50:08;;;;;;;7.78;3.30;;;3.90;99.90;;;;;;5029938;28;20139;-74
2022/03/11 06:52:34;;;;;;;6.20;3.40;;;4.00;99.90;;;;;;5028357;28;20033;-74
2022/03/11 06:55:01;;;;;;;8.23;3.60;;;4.10;99.90;;;;;;5028022;28;20036;-74
2022/03/11 06:57:26;;;;;;;6.18;2.92;;;4.00;99.90;;;;;;5031550;28;20378;-74
2022/03/11 06:59:52;;;;;;;5.40;3.13;;;4.10;99.90;;;;;;5031844;28;20043;-74
2022/03/11 07:02:18;;;;;;;5.90;2.90;;;4.20;99.90;;;;;;5027224;28;20033;-75
2022/03/11 07:04:44;;;;;;;5.97;2.75;;;4.20;99.90;;;;;;5029202;28;20390;-75
2022/03/11 07:07:10;;;;;;;6.63;2.90;;;4.20;99.90;;;;;;5030827;28;20037;-74
2022/03/11 07:09:35;;;;;;;6.18;3.05;;;4.40;99.90;;;;;;5031949;28;20076;-74
2022/03/11 07:12:03;;;;;;;6.97;3.13;;;4.40;99.90;;;;;;5031339;28;20058;-74
2022/03/11 07:14:29;;;;;;;8.23;3.67;;;4.50;99.90;;;;;;5029225;28;20394;-74
2022/03/11 07:16:56;;;;;;;7.78;3.65;;;4.60;99.90;;;;;;5031611;28;20053;-74
2022/03/11 07:19:28;;;;;;;5.90;3.28;;;4.70;99.90;;;;;;5026709;28;20031;-74
2022/03/11 07:21:55;;;;;;;6.28;3.03;;;4.80;99.90;;;;;;5017400;28;20029;-74
2022/03/11 07:24:21;;;;;;;8.80;3.85;;;4.80;99.90;;;;;;5023293;28;20091;-73
2022/03/11 07:26:47;;;;;;;6.72;3.55;;;5.00;99.90;;;;;;5030985;28;20080;-74
2022/03/11 07:29:12;;;;;;;7.53;3.75;;;4.90;99.90;;;;;;5028370;28;20040;-73
2022/03/11 07:31:38;;;;;;;6.28;3.38;;;5.00;99.90;;;;;;5030280;28;20135;-74
2022/03/11 07:34:04;;;;;;;6.60;3.42;;;5.10;99.90;;;;;;5027153;28;20097;-75
2022/03/11 07:36:32;;;;;;;8.68;4.35;;;5.10;99.90;;;;;;5022960;28;20417;-74
2022/03/11 07:38:58;;;;;;;10.68;4.70;;;5.20;99.90;;;;;;5025220;28;20308;-74
2022/03/11 07:41:26;;;;;;;9.50;4.30;;;5.20;99.90;;;;;;4997314;28;20285;-74
2022/03/11 07:43:51;;;;;;;8.75;4.05;;;5.20;99.90;;;;;;5003055;28;20436;-75
2022/03/11 07:46:17;;;;;;;10.02;6.45;;;5.30;99.90;;;;;;5021699;28;20045;-75
2022/03/11 07:48:43;;;;;;;11.18;4.68;;;5.40;99.90;;;;;;5026179;28;20034;-74
2022/03/11 07:51:08;;;;;;;8.38;4.38;;;5.50;99.90;;;;;;5026782;28;20429;-75
2022/03/11 07:53:35;;;;;;;8.35;4.70;;;5.60;99.90;;;;;;5027528;28;20076;-74
2022/03/11 07:56:03;;;;;;;9.65;4.78;;;5.70;99.90;;;;;;5025660;28;20041;-75
2022/03/11 07:58:29;;;;;;;8.50;4.93;;;5.80;99.90;;;;;;5008197;28;20034;-75
2022/03/11 08:00:55;;;;;;;11.90;6.10;;;6.00;99.90;;;;;;5009864;28;20541;-74
2022/03/11 08:03:21;;;;;;;10.10;5.72;;;6.10;99.90;;;;;;5025268;28;20109;-76
2022/03/11 08:05:47;;;;;;;9.07;5.13;;;6.20;99.90;;;;;;5022951;28;20152;-74
2022/03/11 08:08:13;;;;;;;10.45;6.25;;;6.40;99.90;;;;;;5020332;28;20041;-74
2022/03/11 08:10:39;;;;;;;9.57;5.35;;;6.50;99.90;;;;;;5022477;28;20061;-75
2022/03/11 08:13:06;;;;;;;11.73;7.20;;;6.60;99.90;;;;;;5022444;28;20432;-75
2022/03/11 08:15:33;;;;;;;11.38;6.40;;;6.80;99.90;;;;;;5005828;28;20390;-75
2022/03/11 08:17:59;;;;;;;9.70;6.00;;;6.90;99.90;;;;;;5026493;28;20025;-75
2022/03/11 08:20:25;;;;;;;10.52;5.75;;;7.10;99.90;;;;;;5025501;28;20032;-74
2022/03/11 08:22:50;;;;;;;12.60;6.07;;;7.20;99.90;;;;;;5025494;28;20042;-76
2022/03/11 08:25:17;;;;;;;12.00;6.93;;;7.40;99.90;;;;;;5022735;28;20079;-75
2022/03/11 08:27:43;;;;;;;10.20;6.40;;;7.50;99.90;;;;;;5030974;28;20946;-75
2022/03/11 08:30:10;;;;;;;13.07;7.82;;;7.60;99.90;;;;;;5026401;28;20045;-75
2022/03/11 08:32:37;;;;;;;11.75;6.57;;;7.70;99.90;;;;;;5023914;28;20026;-75
2022/03/11 08:35:03;;;;;;;14.85;7.40;;;7.80;99.90;;;;;;5009762;28;20030;-75
2022/03/11 08:37:29;;;;;;;9.82;5.82;;;7.90;99.90;;;;;;5024936;28;20402;-74
2022/03/11 08:39:56;;;;;;;10.25;5.93;;;8.10;99.90;;;;;;5005327;28;20472;-75
2022/03/11 08:42:21;;;;;;;10.85;5.57;;;8.20;99.90;;;;;;5023697;28;20037;-75
2022/03/11 08:44:47;;;;;;;10.90;5.82;;;8.30;99.90;;;;;;5026603;28;20045;-75
2022/03/11 08:47:13;;;;;;;15.02;7.35;;;8.40;99.90;;;;;;5006452;28;20084;-75
2022/03/11 08:49:40;;;;;;;14.35;8.18;;;8.40;99.90;;;;;;5000577;28;20037;-75
2022/03/11 08:52:06;;;;;;;11.68;7.13;;;8.50;99.90;;;;;;5028811;28;20038;-75
2022/03/11 08:54:32;;;;;;;14.80;8.00;;;8.60;99.90;;;;;;5030561;28;20022;-75
2022/03/11 08:56:59;;;;;;;10.75;6.57;;;8.70;99.90;;;;;;5025400;28;20397;-75
2022/03/11 08:59:25;;;;;;;8.10;5.38;;;8.90;99.90;;;;;;5033483;28;20432;-75
2022/03/11 09:01:51;;;;;;;8.77;5.72;;;9.00;99.90;;;;;;5033788;28;20022;-77
2022/03/11 09:04:16;;;;;;;15.32;8.07;;;9.10;99.90;;;;;;5031783;28;20025;-76
2022/03/11 09:06:42;;;;;;;10.20;6.35;;;9.10;99.90;;;;;;5007384;28;20026;-75
2022/03/11 09:09:08;;;;;;;13.40;7.90;;;9.30;99.90;;;;;;5030637;28;20175;-75
2022/03/11 09:11:34;;;;;;;13.35;8.02;;;9.30;99.90;;;;;;5029835;28;20051;-75
2022/03/11 09:14:00;;;;;;;10.45;6.30;;;9.30;99.90;;;;;;5029889;28;20022;-76
2022/03/11 09:16:26;;;;;;;9.43;6.25;;;9.40;99.90;;;;;;5034938;28;20083;-76
2022/03/11 09:18:52;;;;;;;9.95;6.47;;;9.50;99.90;;;;;;5030474;28;20033;-75
2022/03/11 09:21:17;;;;;;;11.88;6.90;;;9.60;99.90;;;;;;5026716;28;20036;-75
2022/03/11 09:23:43;;;;;;;13.73;7.63;;;9.60;99.90;;;;;;5030817;28;20087;-75
2022/03/11 09:26:10;;;;;;;11.30;6.65;;;9.70;99.90;;;;;;5029648;28;20026;-75
2022/03/11 09:28:35;;;;;;;10.13;7.25;;;9.90;99.90;;;;;;5029411;28;21262;-75
2022/03/11 09:31:03;;;;;;;9.50;5.15;;;9.90;99.90;;;;;;5043659;28;20474;-75
2022/03/11 09:33:29;;;;;;;10.27;6.47;;;10.10;99.90;;;;;;5013905;28;20032;-75
2022/03/11 09:35:55;;;;;;;10.15;7.03;;;10.00;99.90;;;;;;5029439;28;20352;-75
2022/03/11 09:38:20;;;;;;;9.00;5.25;;;10.10;99.90;;;;;;5030847;28;20101;-75
2022/03/11 09:40:47;;;;;;;8.77;5.28;;;10.30;99.90;;;;;;5032828;28;20112;-75
2022/03/11 09:43:14;;;;;;;7.45;4.85;;;10.50;99.90;;;;;;5013195;28;20030;-75
2022/03/11 09:45:40;;;;;;;10.88;5.78;;;10.70;99.90;;;;;;5020132;28;20456;-75
2022/03/11 09:48:06;;;;;;;10.27;6.45;;;10.70;99.90;;;;;;5024569;28;20049;-76
2022/03/11 09:50:33;;;;;;;10.50;6.28;;;10.70;99.90;;;;;;5045209;28;20146;-76
2022/03/11 09:52:59;;;;;;;9.30;6.28;;;10.70;99.90;;;;;;5029751;28;20547;-75
2022/03/11 09:55:25;;;;;;;12.00;6.72;;;10.70;99.90;;;;;;5030787;28;20040;-76
2022/03/11 09:57:50;;;;;;;9.20;5.88;;;10.80;99.90;;;;;;5022200;28;20144;-76
2022/03/11 10:00:16;;;;;;;12.57;7.00;;;10.80;99.90;;;;;;5028655;28;20029;-75
2022/03/11 10:02:44;;;;;;;12.43;8.15;;;10.80;99.90;;;;;;5012172;28;20022;-75
2022/03/11 10:05:13;;;;;;;14.20;9.15;;;10.80;99.90;;;;;;5034030;28;20474;-76
2022/03/11 10:07:38;;;;;;;11.55;7.63;;;10.80;99.90;;;;;;5034027;28;20038;-76
2022/03/11 10:10:14;;;;;;;13.93;6.82;;;11.00;99.90;;;;;;5029914;28;20397;-76
2022/03/11 10:12:43;;;;;;;9.90;6.88;;;11.20;99.90;;;;;;5007104;28;20034;-76
2022/03/11 10:15:09;;;;;;;10.50;6.30;;;11.30;99.90;;;;;;5027132;28;20029;-76
2022/03/11 10:17:43;;;;;;;11.07;6.72;;;11.40;99.90;;;;;;5026508;28;20025;-76
2022/03/11 10:20:14;;;;;;;9.77;6.35;;;11.20;99.90;;;;;;5030051;28;20144;-75
2022/03/11 10:22:42;;;;;;;8.60;6.07;;;11.30;99.90;;;;;;5030320;28;20057;-77
2022/03/11 10:25:25;;;;;;;11.77;7.18;;;11.50;99.90;;;;;;5032212;28;20105;-76
2022/03/11 10:28:05;;;;;;;11.07;6.82;;;11.50;99.90;;;;;;5027276;28;20082;-76
2022/03/11 10:30:32;;;;;;;;;;;11.70;99.90;;;;;;5041885;28;20128;-76
2022/03/11 10:33:01;;;;;;;10.77;6.80;;;11.60;99.90;;;;;;5020300;28;19909;-75
2022/03/11 10:35:38;;;;;;;9.38;6.93;;;11.60;99.90;;;;;;5015887;28;20071;-75
2022/03/11 10:38:07;;;;;;;14.35;7.32;;;11.80;99.90;;;;;;5043365;28;20083;-76
2022/03/11 10:40:34;;;;;;;11.05;6.22;;;11.60;99.90;;;;;;5033384;28;20026;-76
2022/03/11 10:43:19;;;;;;;8.55;5.38;;;11.80;99.90;;;;;;5028839;28;20036;-76
2022/03/11 10:45:47;;;;;;;8.15;5.82;;;12.00;99.90;;;;;;5042731;28;20553;-75
2022/03/11 10:48:13;;;;;;;10.43;5.93;;;12.00;99.90;;;;;;5028839;28;20057;-75
2022/03/11 10:50:39;;;;;;;7.13;4.70;;;12.10;99.90;;;;;;5029789;28;20541;-76
2022/03/11 10:53:09;;;;;;;6.70;4.68;;;12.50;99.90;;;;;;5029542;28;20108;-76
2022/03/11 10:55:39;;;;;;;7.28;4.70;;;12.60;99.90;;;;;;5030130;28;20052;-76
2022/03/11 10:58:07;;;;;;;9.13;5.72;;;12.60;99.90;;;;;;5022447;28;20397;-75
2022/03/11 11:00:39;;;;;;;6.55;4.10;;;12.70;99.90;;;;;;5027616;28;20033;-76
2022/03/11 11:03:06;;;;;;;8.57;5.20;;;12.80;99.90;;;;;;5028160;28;20457;-76
2022/03/11 11:05:33;;;;;;;9.43;5.55;;;12.90;99.90;;;;;;5023132;28;20030;-75
2022/03/11 11:08:02;;;;;;;10.63;7.10;;;12.80;99.90;;;;;;5027486;28;20464;-76
2022/03/11 11:10:30;;;;;;;9.95;6.00;;;12.60;99.80;;;;;;5010796;28;20037;-76
2022/03/11 11:12:56;;;;;;;10.30;6.40;;;12.80;99.90;;;;;;5044057;28;20120;-76
2022/03/11 11:15:22;;;;;;;9.80;6.32;;;12.80;99.90;;;;;;5010719;28;20108;-75
2022/03/11 11:17:49;;;;;;;11.80;7.53;;;12.80;99.90;;;;;;5029588;28;20546;-76
2022/03/11 11:20:24;;;;;;;10.15;5.35;;;12.70;99.80;;;;;;5023626;28;20025;-75
2022/03/11 11:22:52;;;;;;;9.73;6.00;;;12.90;99.90;;;;;;5027361;28;20064;-75
2022/03/11 11:25:21;;;;;;;10.23;7.25;;;13.00;99.70;;;;;;5027046;28;20143;-76
2022/03/11 11:27:48;;;;;;;6.95;4.25;;;13.00;99.70;;;;;;5031277;28;20048;-76
2022/03/11 11:30:18;;;;;;;7.82;4.55;;;13.30;99.90;;;;;;5027117;28;20056;-76
2022/03/11 11:32:45;;;;;;;8.48;4.97;;;13.50;99.20;;;;;;5041123;28;20033;-76
2022/03/11 11:35:33;;;;;;;10.68;6.30;;;13.40;99.00;;;;;;5023049;28;20167;-75
2022/03/11 11:38:01;;;;;;;8.00;5.47;;;13.60;99.10;;;;;;5028647;28;20030;-75
2022/03/11 11:40:35;;;;;;;9.70;5.78;;;13.70;99.30;;;;;;5042229;28;20029;-76
2022/03/11 11:43:13;;;;;;;6.93;4.65;;;13.70;98.80;;;;;;5027989;28;20108;-76
2022/03/11 11:45:44;;;;;;;11.27;7.00;;;13.70;98.80;;;;;;5021824;28;20421;-76
2022/03/11 11:48:31;;;;;;;10.10;6.20;;;13.50;99.00;;;;;;5029655;28;20489;-75
2022/03/11 11:50:58;;;;;;;10.85;6.25;;;13.40;98.50;;;;;;5008881;28;20124;-76
2022/03/11 11:53:57;;;;;;;7.07;4.10;;;13.60;98.80;;;;;;5008755;28;20390;-76
2022/03/11 11:56:37;;;;;;;10.10;5.60;;;13.70;98.90;;;;;;5004783;28;20037;-75
2022/03/11 11:59:09;;;;;;;11.25;6.68;;;13.80;98.70;;;;;;5009192;28;20034;-76
2022/03/11 12:01:48;;;;;;;9.70;5.72;;;13.80;98.50;;;;;;5024220;28;20057;-76
2022/03/11 12:04:29;;;;;;;9.88;6.40;;;13.80;98.40;;;;;;5029833;28;20037;-76
2022/03/11 12:07:03;;;;;;;8.52;5.55;;;13.90;98.50;;;;;;5022334;28;20109;-76
2022/03/11 12:09:41;;;;;;;9.32;5.78;;;14.00;98.60;;;;;;5014416;28;20075;-76
2022/03/11 12:12:43;;;;;;;12.68;8.00;;;14.00;98.30;;;;;;5025357;28;20451;-77
2022/03/11 12:15:10;;;;;;;11.50;7.32;;;14.00;98.50;;;;;;5028825;28;20088;-76
2022/03/11 12:17:40;;;;;;;10.93;7.07;;;14.00;98.30;;;;;;5027008;28;20544;-76
2022/03/11 12:20:33;;;;;;;9.73;6.43;;;13.80;98.30;;;;;;5025753;28;20116;-77
2022/03/11 12:23:17;;;;;;;7.28;4.63;;;14.10;98.50;;;;;;5024347;28;20038;-77
2022/03/11 12:25:50;;;;;;;8.75;5.03;;;14.50;98.40;;;;;;5009311;28;20041;-76
2022/03/11 12:28:25;;;;;;;9.38;5.68;;;14.60;98.20;;;;;;5027761;28;20030;-77
2022/03/11 12:30:50;;;;;;;8.07;5.63;;;14.30;97.70;;;;;;5032072;28;20041;-77
2022/03/11 12:33:18;;;;;;;9.98;7.30;;;14.20;98.30;;;;;;5014403;28;20017;-76
2022/03/11 12:35:46;;;;;;;7.07;5.45;;;14.50;98.00;;;;;;5026248;28;20470;-76
2022/03/11 12:38:14;;;;;;;7.97;5.55;;;14.70;98.80;;;;;;5029343;28;20486;-76
2022/03/11 12:40:41;;;;;;;10.27;6.45;;;15.00;98.60;;;;;;5027961;28;20394;-76
2022/03/11 12:43:09;;;;;;;10.20;6.55;;;14.70;98.10;;;;;;5014120;28;20029;-76
2022/03/11 12:45:39;;;;;;;8.25;5.65;;;14.60;97.90;;;;;;5026940;28;20076;-76
2022/03/11 12:48:08;;;;;;;9.35;5.60;;;14.70;98.20;;;;;;5031438;28;20057;-78
2022/03/11 12:50:34;;;;;;;9.13;5.85;;;14.60;98.20;;;;;;5030364;28;20508;-76
2022/03/11 12:53:03;;;;;;;9.70;5.97;;;14.60;98.00;;;;;;5030438;28;20029;-76
2022/03/11 12:55:31;;;;;;;9.15;5.68;;;14.70;98.20;;;;;;5029796;28;20050;-76